Time,TemperatureF,DewpointF,PressureIn,WindDirection,WindDirectionDegrees,WindSpeedMPH,WindSpeedGustMPH,Humidity,HourlyPrecipIn,Conditions,Clouds,dailyrainin,SoftwareType,DateUTC
2013-09-30 00:02:00,43.5,39.0,29.62,ESE,112,0.0,0.0,84,0.00,,---,0.00,VWS V14.01,2013-09-30 04:02:00,
2013-09-30 00:03:00,43.5,39.0,29.62,ESE,112,0.0,0.0,84,0.00,,---,0.00,VWS V14.01,2013-09-30 04:03:00,
2013-09-30 00:04:00,43.5,39.0,29.62,ESE,112,0.0,0.0,84,0.00,,---,0.00,VWS V14.01,2013-09-30 04:04:00,
2013-09-30 00:08:00,43.3,38.8,29.62,ESE,112,0.0,0.0,84,0.00,,---,0.00,VWS V14.01,2013-09-30 04:08:00,
2013-09-30 00:13:00,43.3,38.8,29.62,ESE,112,0.0,0.0,84,0.00,,---,0.00,VWS V14.01,2013-09-30 04:13:00,
2013-09-30 00:17:00,43.2,38.7,29.62,ESE,112,0.0,0.0,84,0.00,,---,0.00,VWS V14.01,2013-09-30 04:17:00,
2013-09-30 00:22:00,43.0,38.5,29.62,ESE,112,0.0,0.0,84,0.00,,---,0.00,VWS V14.01,2013-09-30 04:22:00,
2013-09-30 00:28:00,43.0,38.5,29.62,ESE,112,0.0,0.0,84,0.00,,---,0.00,VWS V14.01,2013-09-30 04:28:00,
2013-09-30 00:33:00,43.0,38.8,29.62,ESE,112,0.0,0.0,85,0.00,,---,0.00,VWS V14.01,2013-09-30 04:33:00,
2013-09-30 00:38:00,42.8,38.6,29.62,ESE,112,0.0,0.0,85,0.00,,---,0.00,VWS V14.01,2013-09-30 04:38:00,
2013-09-30 00:43:00,42.8,38.6,29.62,ESE,112,0.0,0.0,85,0.00,,---,0.00,VWS V14.01,2013-09-30 04:43:00,
2013-09-30 00:48:00,42.6,38.4,29.62,ESE,112,0.0,0.0,85,0.00,,---,0.00,VWS V14.01,2013-09-30 04:48:00,
2013-09-30 00:53:00,42.4,38.3,29.62,ESE,112,0.0,0.0,85,0.00,,---,0.00,VWS V14.01,2013-09-30 04:53:00,
2013-09-30 00:58:00,42.4,38.3,29.62,ESE,112,0.0,0.0,85,0.00,,---,0.00,VWS V14.01,2013-09-30 04:58:00,
2013-09-30 01:03:00,42.3,38.1,29.62,ESE,112,0.0,0.0,85,0.00,,---,0.00,VWS V14.01,2013-09-30 05:03:00,
2013-09-30 01:09:00,42.3,38.1,29.62,ESE,112,0.0,0.0,85,0.00,,---,0.00,VWS V14.01,2013-09-30 05:09:00,
2013-09-30 01:15:00,42.3,38.4,29.62,ESE,112,0.0,0.0,86,0.00,,---,0.00,VWS V14.01,2013-09-30 05:15:00,
2013-09-30 01:20:00,42.3,38.4,29.62,ESE,112,0.0,0.0,86,0.00,,---,0.00,VWS V14.01,2013-09-30 05:20:00,
2013-09-30 01:25:00,42.1,38.2,29.62,ESE,112,0.0,0.0,86,0.00,,---,0.00,VWS V14.01,2013-09-30 05:25:00,
2013-09-30 01:30:00,42.1,38.2,29.62,ESE,112,0.0,0.0,86,0.00,,---,0.00,VWS V14.01,2013-09-30 05:30:00,
2013-09-30 01:35:00,41.9,38.0,29.62,ESE,112,0.0,0.0,86,0.00,,---,0.00,VWS V14.01,2013-09-30 05:35:00,
2013-09-30 01:40:00,41.7,37.8,29.62,ESE,112,0.0,0.0,86,0.00,,---,0.00,VWS V14.01,2013-09-30 05:40:00,
2013-09-30 01:46:00,41.7,37.8,29.62,ESE,112,0.0,0.0,86,0.00,,---,0.00,VWS V14.01,2013-09-30 05:46:00,
2013-09-30 01:51:00,41.5,37.7,29.62,ESE,112,0.0,0.0,86,0.00,,---,0.00,VWS V14.01,2013-09-30 05:51:00,
2013-09-30 01:57:00,41.4,37.5,29.62,ESE,112,0.0,0.0,86,0.00,,---,0.00,VWS V14.01,2013-09-30 05:57:00,
2013-09-30 02:02:00,41.2,37.3,29.62,ESE,112,0.0,0.0,86,0.00,,---,0.00,VWS V14.01,2013-09-30 06:02:00,
2013-09-30 02:08:00,41.2,37.3,29.59,ESE,112,0.0,0.0,86,0.00,,---,0.00,VWS V14.01,2013-09-30 06:08:00,
2013-09-30 02:13:00,41.0,37.1,29.59,ESE,112,0.0,0.0,86,0.00,,---,0.00,VWS V14.01,2013-09-30 06:13:00,
2013-09-30 02:18:00,41.0,37.1,29.59,ESE,112,0.0,0.0,86,0.00,,---,0.00,VWS V14.01,2013-09-30 06:18:00,
2013-09-30 02:23:00,40.8,37.0,29.62,ESE,112,0.0,0.0,86,0.00,,---,0.00,VWS V14.01,2013-09-30 06:23:00,
2013-09-30 02:28:00,40.6,36.8,29.62,ESE,112,0.0,0.0,86,0.00,,---,0.00,VWS V14.01,2013-09-30 06:28:00,
2013-09-30 02:33:00,40.6,37.1,29.62,ESE,112,0.0,0.0,87,0.00,,---,0.00,VWS V14.01,2013-09-30 06:33:00,
2013-09-30 02:38:00,40.6,37.1,29.62,ESE,112,0.0,0.0,87,0.00,,---,0.00,VWS V14.01,2013-09-30 06:38:00,
2013-09-30 02:43:00,40.6,37.1,29.62,ESE,112,0.0,0.0,87,0.00,,---,0.00,VWS V14.01,2013-09-30 06:43:00,
2013-09-30 02:48:00,40.5,36.9,29.62,ESE,112,0.0,0.0,87,0.00,,---,0.00,VWS V14.01,2013-09-30 06:48:00,
2013-09-30 02:53:00,40.5,36.9,29.59,ESE,112,0.0,0.0,87,0.00,,---,0.00,VWS V14.01,2013-09-30 06:53:00,
2013-09-30 02:58:00,40.3,36.7,29.59,ESE,112,0.0,0.0,87,0.00,,---,0.00,VWS V14.01,2013-09-30 06:58:00,
2013-09-30 03:04:00,40.3,37.0,29.59,ESE,112,0.0,0.0,88,0.00,,---,0.00,VWS V14.01,2013-09-30 07:04:00,
2013-09-30 03:09:00,40.3,37.0,29.59,ESE,112,0.0,0.0,88,0.00,,---,0.00,VWS V14.01,2013-09-30 07:09:00,
2013-09-30 03:14:00,40.3,37.0,29.59,ESE,112,1.1,1.3,88,0.00,,---,0.00,VWS V14.01,2013-09-30 07:14:00,
2013-09-30 03:19:00,40.3,37.0,29.59,ESE,112,0.0,0.0,88,0.00,,---,0.00,VWS V14.01,2013-09-30 07:19:00,
2013-09-30 03:24:00,40.3,37.0,29.59,ESE,112,0.0,0.0,88,0.00,,---,0.00,VWS V14.01,2013-09-30 07:24:00,
2013-09-30 03:30:00,40.3,37.0,29.59,ESE,112,0.0,1.3,88,0.00,,---,0.00,VWS V14.01,2013-09-30 07:30:00,
2013-09-30 03:36:00,40.3,37.0,29.59,ESE,112,0.0,0.0,88,0.00,,---,0.00,VWS V14.01,2013-09-30 07:36:00,
2013-09-30 03:42:00,40.3,37.0,29.59,ESE,112,0.0,0.0,88,0.00,,---,0.00,VWS V14.01,2013-09-30 07:42:00,
2013-09-30 03:47:00,40.1,36.8,29.59,ESE,112,1.6,2.2,88,0.00,,---,0.00,VWS V14.01,2013-09-30 07:47:00,
2013-09-30 03:52:00,39.9,36.7,29.59,ESE,112,0.0,0.0,88,0.00,,---,0.00,VWS V14.01,2013-09-30 07:52:00,
2013-09-30 03:57:00,39.9,36.7,29.59,ESE,112,0.0,0.0,88,0.00,,---,0.00,VWS V14.01,2013-09-30 07:57:00,
2013-09-30 04:03:00,39.7,36.5,29.59,ESE,112,0.0,0.0,88,0.00,,---,0.00,VWS V14.01,2013-09-30 08:03:00,
2013-09-30 04:08:00,39.7,36.5,29.59,ESE,112,0.0,0.0,88,0.00,,---,0.00,VWS V14.01,2013-09-30 08:08:00,
2013-09-30 04:13:00,39.6,36.3,29.59,ESE,112,1.6,2.0,88,0.00,,---,0.00,VWS V14.01,2013-09-30 08:13:00,
2013-09-30 04:18:00,39.4,36.1,29.59,ESE,112,0.0,0.0,88,0.00,,---,0.00,VWS V14.01,2013-09-30 08:18:00,
2013-09-30 04:23:00,39.2,36.0,29.59,ESE,112,0.0,0.0,88,0.00,,---,0.00,VWS V14.01,2013-09-30 08:23:00,
2013-09-30 04:28:00,39.2,36.0,29.59,ESE,112,0.0,0.0,88,0.00,,---,0.00,VWS V14.01,2013-09-30 08:28:00,
2013-09-30 04:33:00,39.2,36.0,29.59,ESE,112,0.0,0.0,88,0.00,,---,0.00,VWS V14.01,2013-09-30 08:33:00,
2013-09-30 04:38:00,39.2,36.0,29.59,ESE,112,0.0,0.0,88,0.00,,---,0.00,VWS V14.01,2013-09-30 08:38:00,
2013-09-30 04:43:00,39.2,36.2,29.59,ESE,112,0.0,0.0,89,0.00,,---,0.00,VWS V14.01,2013-09-30 08:43:00,
2013-09-30 04:48:00,39.2,36.2,29.59,East,90,0.0,0.0,89,0.00,,---,0.00,VWS V14.01,2013-09-30 08:48:00,
2013-09-30 04:53:00,39.2,36.2,29.59,ENE,68,0.0,0.0,89,0.00,,---,0.00,VWS V14.01,2013-09-30 08:53:00,
2013-09-30 04:58:00,39.4,36.7,29.59,ENE,68,0.0,0.0,90,0.00,,---,0.00,VWS V14.01,2013-09-30 08:58:00,
2013-09-30 05:03:00,39.6,36.9,29.59,NE,45,0.0,0.0,90,0.00,,---,0.00,VWS V14.01,2013-09-30 09:03:00,
2013-09-30 05:08:00,39.7,37.0,29.59,NE,45,0.0,0.0,90,0.00,,---,0.00,VWS V14.01,2013-09-30 09:08:00,
2013-09-30 05:13:00,39.7,37.0,29.59,NE,45,0.0,0.0,90,0.00,,---,0.00,VWS V14.01,2013-09-30 09:13:00,
2013-09-30 05:18:00,39.9,37.5,29.59,NE,45,0.0,0.0,91,0.00,,---,0.00,VWS V14.01,2013-09-30 09:18:00,
2013-09-30 05:24:00,40.1,37.7,29.59,NE,45,0.0,0.0,91,0.00,,---,0.00,VWS V14.01,2013-09-30 09:24:00,
2013-09-30 05:29:00,40.3,37.9,29.59,NE,45,0.0,0.0,91,0.00,,---,0.00,VWS V14.01,2013-09-30 09:29:00,
2013-09-30 05:34:00,40.3,37.9,29.59,NE,45,0.0,0.0,91,0.00,,---,0.00,VWS V14.01,2013-09-30 09:34:00,
2013-09-30 05:39:00,40.3,37.9,29.59,NE,45,0.0,0.0,91,0.00,,---,0.00,VWS V14.01,2013-09-30 09:39:00,
2013-09-30 05:45:00,40.3,37.9,29.59,NE,45,0.0,0.0,91,0.00,,---,0.00,VWS V14.01,2013-09-30 09:45:00,
2013-09-30 05:50:00,40.1,37.7,29.59,NE,45,0.0,0.0,91,0.00,,---,0.00,VWS V14.01,2013-09-30 09:50:00,
2013-09-30 05:55:00,40.3,37.9,29.59,NW,315,0.0,0.0,91,0.00,,---,0.00,VWS V14.01,2013-09-30 09:55:00,
2013-09-30 06:00:00,40.3,37.9,29.59,NW,315,0.0,0.0,91,0.00,,---,0.00,VWS V14.01,2013-09-30 10:00:00,
2013-09-30 06:06:00,40.3,37.9,29.59,NW,315,0.0,0.0,91,0.00,,---,0.00,VWS V14.01,2013-09-30 10:06:00,
2013-09-30 06:11:00,40.3,37.9,29.59,NW,315,0.0,0.0,91,0.00,,---,0.00,VWS V14.01,2013-09-30 10:11:00,
2013-09-30 06:16:00,40.3,37.9,29.59,NW,315,0.0,0.0,91,0.00,,---,0.00,VWS V14.01,2013-09-30 10:16:00,
2013-09-30 06:21:00,40.3,37.9,29.59,NW,315,0.0,0.0,91,0.00,,---,0.00,VWS V14.01,2013-09-30 10:21:00,
2013-09-30 06:26:00,39.9,37.2,29.59,NW,315,0.0,0.0,90,0.00,,---,0.00,VWS V14.01,2013-09-30 10:26:00,
2013-09-30 06:31:00,39.9,37.5,29.59,NW,315,0.0,0.0,91,0.00,,---,0.00,VWS V14.01,2013-09-30 10:31:00,
2013-09-30 06:36:00,39.9,37.5,29.62,NW,315,0.0,0.0,91,0.00,,---,0.00,VWS V14.01,2013-09-30 10:36:00,
2013-09-30 06:41:00,40.1,37.7,29.62,NW,315,0.0,0.0,91,0.00,,---,0.00,VWS V14.01,2013-09-30 10:41:00,
2013-09-30 06:46:00,40.1,38.0,29.62,NW,315,0.0,0.0,92,0.00,,---,0.00,VWS V14.01,2013-09-30 10:46:00,
2013-09-30 06:51:00,40.1,38.0,29.59,NW,315,0.0,0.0,92,0.00,,---,0.00,VWS V14.01,2013-09-30 10:51:00,
2013-09-30 06:57:00,40.3,38.2,29.59,NW,315,0.0,0.0,92,0.00,,---,0.00,VWS V14.01,2013-09-30 10:57:00,
2013-09-30 07:02:00,40.3,38.2,29.59,NW,315,0.0,0.0,92,0.00,,---,0.00,VWS V14.01,2013-09-30 11:02:00,
2013-09-30 07:07:00,40.3,38.2,29.62,NW,315,0.0,0.0,92,0.00,,---,0.00,VWS V14.01,2013-09-30 11:07:00,
2013-09-30 07:12:00,40.6,38.8,29.62,NW,315,0.0,0.0,93,0.00,,---,0.00,VWS V14.01,2013-09-30 11:12:00,
2013-09-30 07:17:00,40.8,39.0,29.62,NW,315,0.0,0.0,93,0.00,,---,0.00,VWS V14.01,2013-09-30 11:17:00,
2013-09-30 07:22:00,41.0,39.1,29.62,NW,315,0.0,0.0,93,0.00,,---,0.00,VWS V14.01,2013-09-30 11:22:00,
2013-09-30 07:27:00,41.0,39.1,29.62,NW,315,0.0,0.0,93,0.00,,---,0.00,VWS V14.01,2013-09-30 11:27:00,
2013-09-30 07:32:00,41.2,39.3,29.62,NW,315,0.0,0.0,93,0.00,,---,0.00,VWS V14.01,2013-09-30 11:32:00,
2013-09-30 07:38:00,41.4,39.8,29.62,NW,315,0.0,0.0,94,0.00,,---,0.00,VWS V14.01,2013-09-30 11:38:00,
2013-09-30 07:43:00,41.5,40.0,29.62,NW,315,0.0,0.0,94,0.00,,---,0.00,VWS V14.01,2013-09-30 11:43:00,
2013-09-30 07:48:00,41.7,40.1,29.62,SSW,202,0.0,1.6,94,0.00,,---,0.00,VWS V14.01,2013-09-30 11:48:00,
2013-09-30 07:53:00,41.9,40.3,29.59,NW,315,0.0,1.1,94,0.00,,---,0.00,VWS V14.01,2013-09-30 11:53:00,
2013-09-30 07:58:00,42.3,40.7,29.59,NW,315,0.0,0.0,94,0.00,,---,0.00,VWS V14.01,2013-09-30 11:58:00,
2013-09-30 08:03:00,42.4,40.8,29.59,NW,315,0.0,0.0,94,0.00,,---,0.00,VWS V14.01,2013-09-30 12:03:00,
2013-09-30 08:08:00,42.8,41.2,29.59,NW,315,0.0,0.0,94,0.00,,---,0.00,VWS V14.01,2013-09-30 12:08:00,
2013-09-30 08:14:00,43.2,41.5,29.59,North,0,0.0,0.0,94,0.00,,---,0.00,VWS V14.01,2013-09-30 12:14:00,
2013-09-30 08:20:00,43.3,41.7,29.59,WNW,292,0.0,0.0,94,0.00,,---,0.00,VWS V14.01,2013-09-30 12:20:00,
2013-09-30 08:25:00,43.7,42.1,29.59,WNW,292,0.0,0.0,94,0.00,,---,0.00,VWS V14.01,2013-09-30 12:25:00,
2013-09-30 08:31:00,44.1,42.5,29.59,ENE,68,0.0,0.0,94,0.00,,---,0.00,VWS V14.01,2013-09-30 12:31:00,
2013-09-30 08:37:00,44.4,42.8,29.59,ENE,68,0.0,0.0,94,0.00,,---,0.00,VWS V14.01,2013-09-30 12:37:00,
2013-09-30 08:42:00,44.8,42.9,29.59,SE,135,0.0,0.0,93,0.00,,---,0.00,VWS V14.01,2013-09-30 12:42:00,
2013-09-30 08:47:00,45.1,43.2,29.59,SE,135,0.0,0.0,93,0.00,,---,0.00,VWS V14.01,2013-09-30 12:47:00,
2013-09-30 08:52:00,45.5,43.6,29.59,ENE,68,0.0,0.0,93,0.00,,---,0.00,VWS V14.01,2013-09-30 12:52:00,
2013-09-30 08:57:00,45.9,44.0,29.59,ENE,68,0.9,1.3,93,0.00,,---,0.00,VWS V14.01,2013-09-30 12:57:00,
2013-09-30 09:02:00,46.4,44.5,29.59,NNE,22,0.9,2.5,93,0.00,,---,0.00,VWS V14.01,2013-09-30 13:02:00,
2013-09-30 09:08:00,46.8,44.8,29.59,NNE,22,0.0,0.0,93,0.00,,---,0.00,VWS V14.01,2013-09-30 13:08:00,
2013-09-30 09:14:00,47.1,45.2,29.59,ENE,68,0.9,2.0,93,0.00,,---,0.00,VWS V14.01,2013-09-30 13:14:00,
2013-09-30 09:19:00,47.3,45.4,29.59,ENE,68,0.0,0.0,93,0.00,,---,0.00,VWS V14.01,2013-09-30 13:19:00,
2013-09-30 09:24:00,47.8,45.9,29.59,ENE,68,0.0,0.0,93,0.00,,---,0.00,VWS V14.01,2013-09-30 13:24:00,
2013-09-30 09:30:00,48.4,46.2,29.59,NE,45,1.6,1.6,92,0.00,,---,0.00,VWS V14.01,2013-09-30 13:30:00,
2013-09-30 09:35:00,48.6,46.3,29.59,NNE,22,0.0,2.9,92,0.00,,---,0.00,VWS V14.01,2013-09-30 13:35:00,
2013-09-30 09:41:00,48.7,46.2,29.59,NNE,22,1.3,2.0,91,0.00,,---,0.00,VWS V14.01,2013-09-30 13:41:00,
2013-09-30 09:47:00,48.9,46.4,29.59,NNE,22,1.1,2.2,91,0.00,,---,0.00,VWS V14.01,2013-09-30 13:47:00,
2013-09-30 09:52:00,49.1,46.6,29.59,ESE,112,0.0,1.6,91,0.00,,---,0.00,VWS V14.01,2013-09-30 13:52:00,
2013-09-30 09:57:00,49.6,47.1,29.59,WSW,248,0.9,1.6,91,0.00,,---,0.00,VWS V14.01,2013-09-30 13:57:00,
2013-09-30 10:03:00,50.0,47.2,29.59,NE,45,2.0,2.0,90,0.00,,---,0.00,VWS V14.01,2013-09-30 14:03:00,
2013-09-30 10:09:00,50.2,47.4,29.59,ENE,68,3.6,3.6,90,0.00,,---,0.00,VWS V14.01,2013-09-30 14:09:00,
2013-09-30 10:14:00,50.4,47.5,29.59,NNE,22,2.0,3.1,90,0.00,,---,0.00,VWS V14.01,2013-09-30 14:14:00,
2013-09-30 10:20:00,50.4,47.2,29.59,NE,45,0.0,0.0,89,0.00,,---,0.00,VWS V14.01,2013-09-30 14:20:00,
2013-09-30 10:25:00,50.5,47.4,29.59,NE,45,1.3,2.0,89,0.00,,---,0.00,VWS V14.01,2013-09-30 14:25:00,
2013-09-30 10:30:00,50.9,47.8,29.59,NNE,22,2.2,2.2,89,0.00,,---,0.00,VWS V14.01,2013-09-30 14:30:00,
2013-09-30 10:36:00,51.3,48.4,29.56,ENE,68,1.3,2.2,90,0.00,,---,0.00,VWS V14.01,2013-09-30 14:36:00,
2013-09-30 10:41:00,51.6,48.8,29.56,ESE,112,3.1,3.1,90,0.00,,---,0.00,VWS V14.01,2013-09-30 14:41:00,
2013-09-30 10:46:00,52.3,49.2,29.56,NNE,22,1.1,1.3,89,0.00,,---,0.00,VWS V14.01,2013-09-30 14:46:00,
2013-09-30 10:51:00,52.7,49.5,29.56,NE,45,1.6,2.0,89,0.00,,---,0.00,VWS V14.01,2013-09-30 14:51:00,
2013-09-30 10:57:00,53.2,49.8,29.56,ENE,68,1.6,1.6,88,0.00,,---,0.00,VWS V14.01,2013-09-30 14:57:00,
2013-09-30 11:02:00,53.6,49.8,29.56,ESE,112,0.0,0.0,87,0.00,,---,0.00,VWS V14.01,2013-09-30 15:02:00,
2013-09-30 11:08:00,54.3,50.2,29.56,South,180,0.9,2.5,86,0.00,,---,0.00,VWS V14.01,2013-09-30 15:08:00,
2013-09-30 11:14:00,54.9,50.4,29.56,NNE,22,0.0,1.3,85,0.00,,---,0.00,VWS V14.01,2013-09-30 15:14:00,
2013-09-30 11:19:00,55.8,51.0,29.56,North,0,0.0,2.0,84,0.00,,---,0.00,VWS V14.01,2013-09-30 15:19:00,
2013-09-30 11:25:00,56.5,51.4,29.56,NW,315,0.9,2.2,83,0.00,,---,0.00,VWS V14.01,2013-09-30 15:25:00,
2013-09-30 11:30:00,56.8,51.4,29.56,South,180,1.3,1.3,82,0.00,,---,0.00,VWS V14.01,2013-09-30 15:30:00,
2013-09-30 11:36:00,57.6,51.5,29.53,NNE,22,2.9,2.9,80,0.00,,---,0.00,VWS V14.01,2013-09-30 15:36:00,
2013-09-30 11:41:00,58.1,51.3,29.53,ENE,68,2.0,2.0,78,0.00,,---,0.00,VWS V14.01,2013-09-30 15:41:00,
2013-09-30 11:48:00,58.8,51.6,29.53,West,270,1.3,1.3,77,0.00,,---,0.00,VWS V14.01,2013-09-30 15:48:00,
2013-09-30 11:55:00,59.2,51.6,29.53,NE,45,1.6,3.1,76,0.00,,---,0.00,VWS V14.01,2013-09-30 15:55:00,
2013-09-30 12:01:00,59.7,51.1,29.53,ENE,68,2.9,2.9,73,0.00,,---,0.00,VWS V14.01,2013-09-30 16:01:00,
2013-09-30 12:07:00,60.3,50.8,29.53,NE,45,2.5,2.9,71,0.00,,---,0.00,VWS V14.01,2013-09-30 16:07:00,
2013-09-30 17:47:00,63.7,48.6,29.47,ESE,112,0.0,0.0,58,0.00,,---,0.00,VWS V14.01,2013-09-30 21:47:00,
2013-09-30 17:52:00,63.3,48.8,29.47,ESE,112,0.0,0.0,59,0.00,,---,0.00,VWS V14.01,2013-09-30 21:52:00,
2013-09-30 17:58:00,63.0,48.9,29.47,ESE,112,0.0,0.0,60,0.00,,---,0.00,VWS V14.01,2013-09-30 21:58:00,
2013-09-30 18:04:00,62.4,49.2,29.47,ESE,112,0.0,0.0,62,0.00,,---,0.00,VWS V14.01,2013-09-30 22:04:00,
2013-09-30 18:10:00,61.9,49.6,29.47,ESE,112,0.0,0.0,64,0.00,,---,0.00,VWS V14.01,2013-09-30 22:10:00,
2013-09-30 18:15:00,61.3,49.5,29.47,ESE,112,0.0,0.0,65,0.00,,---,0.00,VWS V14.01,2013-09-30 22:15:00,
2013-09-30 18:21:00,60.6,49.6,29.47,ESE,112,0.0,0.0,67,0.00,,---,0.00,VWS V14.01,2013-09-30 22:21:00,
2013-09-30 18:26:00,60.3,49.7,29.47,ESE,112,0.0,0.0,68,0.00,,---,0.00,VWS V14.01,2013-09-30 22:26:00,
2013-09-30 18:32:00,59.7,49.5,29.47,ESE,112,0.0,0.0,69,0.00,,---,0.00,VWS V14.01,2013-09-30 22:32:00,
2013-09-30 18:37:00,59.4,49.6,29.47,ESE,112,0.0,0.0,70,0.00,,---,0.00,VWS V14.01,2013-09-30 22:37:00,
2013-09-30 18:43:00,59.0,49.2,29.47,ESE,112,0.0,0.0,70,0.00,,---,0.00,VWS V14.01,2013-09-30 22:43:00,
2013-09-30 18:48:00,58.5,49.5,29.47,ESE,112,0.0,0.0,72,0.00,,---,0.00,VWS V14.01,2013-09-30 22:48:00,
2013-09-30 18:54:00,58.3,49.3,29.47,ESE,112,0.0,0.0,72,0.00,,---,0.00,VWS V14.01,2013-09-30 22:54:00,
2013-09-30 19:00:00,57.7,49.2,29.47,ESE,112,0.0,0.0,73,0.00,,---,0.00,VWS V14.01,2013-09-30 23:00:00,
2013-09-30 19:05:00,57.4,48.8,29.47,ESE,112,0.0,0.0,73,0.00,,---,0.00,VWS V14.01,2013-09-30 23:05:00,
2013-09-30 19:11:00,57.0,48.8,29.47,ESE,112,0.0,0.0,74,0.00,,---,0.00,VWS V14.01,2013-09-30 23:11:00,
2013-09-30 19:16:00,56.5,48.3,29.47,ESE,112,2.2,2.2,74,0.00,,---,0.00,VWS V14.01,2013-09-30 23:16:00,
2013-09-30 19:22:00,56.1,48.0,29.47,ESE,112,0.0,0.0,74,0.00,,---,0.00,VWS V14.01,2013-09-30 23:22:00,
2013-09-30 19:27:00,55.8,48.0,29.47,ESE,112,1.6,1.6,75,0.00,,---,0.00,VWS V14.01,2013-09-30 23:27:00,
2013-09-30 19:33:00,55.4,47.6,29.47,ESE,112,0.0,1.1,75,0.00,,---,0.00,VWS V14.01,2013-09-30 23:33:00,
2013-09-30 19:39:00,55.0,47.6,29.47,ESE,112,1.6,2.0,76,0.00,,---,0.00,VWS V14.01,2013-09-30 23:39:00,
2013-09-30 19:44:00,54.7,47.3,29.47,ESE,112,0.0,0.0,76,0.00,,---,0.00,VWS V14.01,2013-09-30 23:44:00,
2013-09-30 19:49:00,54.5,47.5,29.47,ESE,112,0.0,0.0,77,0.00,,---,0.00,VWS V14.01,2013-09-30 23:49:00,
2013-09-30 19:54:00,54.1,47.1,29.47,ESE,112,0.0,0.0,77,0.00,,---,0.00,VWS V14.01,2013-09-30 23:54:00,
2013-09-30 20:00:00,53.8,46.8,29.47,ESE,112,0.0,0.0,77,0.00,,---,0.00,VWS V14.01,2013-10-01 00:00:00,
2013-09-30 20:06:00,53.4,46.7,29.47,ESE,112,0.0,0.0,78,0.00,,---,0.00,VWS V14.01,2013-10-01 00:06:00,
2013-09-30 20:11:00,53.1,46.7,29.47,ESE,112,0.0,0.0,79,0.00,,---,0.00,VWS V14.01,2013-10-01 00:11:00,
2013-09-30 20:17:00,52.9,46.9,29.47,ESE,112,0.0,0.0,80,0.00,,---,0.00,VWS V14.01,2013-10-01 00:17:00,
2013-09-30 20:23:00,52.5,46.2,29.47,ESE,112,0.0,0.0,79,0.00,,---,0.00,VWS V14.01,2013-10-01 00:23:00,
2013-09-30 20:28:00,52.3,46.0,29.47,ESE,112,0.0,0.0,79,0.00,,---,0.00,VWS V14.01,2013-10-01 00:28:00,
2013-09-30 20:33:00,52.2,46.2,29.47,ESE,112,1.1,1.1,80,0.00,,---,0.00,VWS V14.01,2013-10-01 00:33:00,
2013-09-30 20:39:00,51.8,45.8,29.47,ESE,112,1.3,1.6,80,0.00,,---,0.00,VWS V14.01,2013-10-01 00:39:00,
2013-09-30 20:45:00,51.8,46.5,29.47,ESE,112,0.0,0.0,82,0.00,,---,0.00,VWS V14.01,2013-10-01 00:45:00,
2013-09-30 20:50:00,51.6,46.3,29.47,ESE,112,0.0,0.0,82,0.00,,---,0.00,VWS V14.01,2013-10-01 00:50:00,
2013-09-30 20:56:00,51.4,46.1,29.47,SSW,202,2.0,2.0,82,0.00,,---,0.00,VWS V14.01,2013-10-01 00:56:00,
2013-09-30 21:01:00,51.3,45.6,29.47,SSW,202,1.6,2.0,81,0.00,,---,0.00,VWS V14.01,2013-10-01 01:01:00,
2013-09-30 21:07:00,51.1,45.8,29.47,SSW,202,2.0,2.2,82,0.00,,---,0.00,VWS V14.01,2013-10-01 01:07:00,
2013-09-30 21:12:00,51.1,45.8,29.47,SSW,202,0.0,1.3,82,0.00,,---,0.00,VWS V14.01,2013-10-01 01:12:00,
2013-09-30 21:18:00,50.7,45.4,29.47,SSW,202,0.0,0.0,82,0.00,,---,0.00,VWS V14.01,2013-10-01 01:18:00,
2013-09-30 21:24:00,50.4,45.1,29.47,SSW,202,0.0,0.0,82,0.00,,---,0.00,VWS V14.01,2013-10-01 01:24:00,
2013-09-30 21:29:00,50.2,44.9,29.47,SSW,202,0.0,0.0,82,0.00,,---,0.00,VWS V14.01,2013-10-01 01:29:00,
2013-09-30 21:35:00,50.2,45.2,29.47,SSW,202,0.0,0.0,83,0.00,,---,0.00,VWS V14.01,2013-10-01 01:35:00,
2013-09-30 21:41:00,50.0,45.0,29.47,SSW,202,1.6,1.6,83,0.00,,---,0.00,VWS V14.01,2013-10-01 01:41:00,
2013-09-30 21:46:00,49.8,44.9,29.47,SSW,202,0.0,0.0,83,0.00,,---,0.00,VWS V14.01,2013-10-01 01:46:00,
2013-09-30 21:52:00,49.6,45.0,29.47,SSW,202,0.0,0.0,84,0.00,,---,0.00,VWS V14.01,2013-10-01 01:52:00,
2013-09-30 21:58:00,49.6,45.0,29.47,SSW,202,0.0,0.0,84,0.00,,---,0.00,VWS V14.01,2013-10-01 01:58:00,
2013-09-30 22:03:00,49.5,44.8,29.47,SSW,202,0.0,0.0,84,0.00,,---,0.00,VWS V14.01,2013-10-01 02:03:00,
2013-09-30 22:09:00,49.3,44.7,29.47,SSW,202,0.0,0.0,84,0.00,,---,0.00,VWS V14.01,2013-10-01 02:09:00,
2013-09-30 22:14:00,48.9,44.3,29.47,SSW,202,0.0,0.0,84,0.00,,---,0.00,VWS V14.01,2013-10-01 02:14:00,
2013-09-30 22:20:00,48.7,44.1,29.47,SSW,202,0.0,0.0,84,0.00,,---,0.00,VWS V14.01,2013-10-01 02:20:00,
2013-09-30 22:25:00,48.7,44.1,29.47,SSW,202,0.0,0.0,84,0.00,,---,0.00,VWS V14.01,2013-10-01 02:25:00,
2013-09-30 22:31:00,48.4,43.8,29.47,SSW,202,0.0,0.0,84,0.00,,---,0.00,VWS V14.01,2013-10-01 02:31:00,
2013-09-30 22:37:00,48.2,43.6,29.47,SSW,202,0.0,0.0,84,0.00,,---,0.00,VWS V14.01,2013-10-01 02:37:00,
2013-09-30 22:42:00,48.0,43.4,29.47,SSW,202,0.0,0.0,84,0.00,,---,0.00,VWS V14.01,2013-10-01 02:42:00,
2013-09-30 22:48:00,47.8,43.2,29.47,SSW,202,0.0,0.0,84,0.00,,---,0.00,VWS V14.01,2013-10-01 02:48:00,
2013-09-30 22:53:00,47.7,43.1,29.47,SSW,202,0.0,0.0,84,0.00,,---,0.00,VWS V14.01,2013-10-01 02:53:00,
2013-09-30 22:59:00,47.5,42.9,29.47,SSW,202,1.6,1.6,84,0.00,,---,0.00,VWS V14.01,2013-10-01 02:59:00,
2013-09-30 23:05:00,47.3,43.0,29.47,SSW,202,0.0,0.0,85,0.00,,---,0.00,VWS V14.01,2013-10-01 03:05:00,
2013-09-30 23:10:00,47.1,42.8,29.47,SSW,202,0.0,0.0,85,0.00,,---,0.00,VWS V14.01,2013-10-01 03:10:00,
2013-09-30 23:16:00,46.9,42.7,29.47,SSW,202,1.6,2.0,85,0.00,,---,0.00,VWS V14.01,2013-10-01 03:16:00,
2013-09-30 23:21:00,46.9,42.7,29.47,SSW,202,1.3,2.0,85,0.00,,---,0.00,VWS V14.01,2013-10-01 03:21:00,
2013-09-30 23:27:00,46.9,42.7,29.47,SSW,202,1.6,2.0,85,0.00,,---,0.00,VWS V14.01,2013-10-01 03:27:00,
2013-09-30 23:33:00,46.9,42.7,29.47,SSW,202,0.0,0.0,85,0.00,,---,0.00,VWS V14.01,2013-10-01 03:33:00,
2013-09-30 23:38:00,46.8,42.8,29.47,SSW,202,0.0,0.0,86,0.00,,---,0.00,VWS V14.01,2013-10-01 03:38:00,
2013-09-30 23:44:00,46.6,42.6,29.47,SSW,202,0.0,0.0,86,0.00,,---,0.00,VWS V14.01,2013-10-01 03:44:00,
2013-09-30 23:50:00,46.4,42.1,29.47,SSW,202,0.0,0.0,85,0.00,,---,0.00,VWS V14.01,2013-10-01 03:50:00,
2013-09-30 23:55:00,46.2,42.3,29.47,SSW,202,0.0,0.0,86,0.00,,---,0.00,VWS V14.01,2013-10-01 03:55:00,